Mc Clellan Airfield
KMCC : rendu visible

Aérodrome :











RETROUVEZ-NOUS SUR...

 
LOGIN :

S'inscrire | Disclaimer

   EN    FR    IT 

 









Légende :    VFR   VFR Marginal   IFR   IFR Intensif   IFR Très Intensif
Visi : 
Plafond : 
>= 8 km
>= 3000ft
5 à 8 km
1000 à 3000 ft
1500m à 5 km
500 à 1000 ft
800 à 1500m
200 à 500 ft
< 800m
< 200 ft
Symboles :   Orages  Brouillard  Fortes neiges  Fortes précipitations  Vent > 20 kt






- Altitude de l'aérodrome : 77 ft


KMCC - Mc Clellan

DERNIER METAR :
  • 201715Z AUTO 02004KT 10SM CLR 10/04 A3018 RMK AO2

METARs EXPIRÉS :
  • 201655Z AUTO 36005KT 10SM CLR 08/05 A3018 RMK AO2
  • 201635Z AUTO 00000KT 10SM CLR 07/05 A3018 RMK AO2
  • 201615Z AUTO 36003KT 10SM CLR 07/05 A3017 RMK AO2
  • 201555Z AUTO 02003KT 10SM CLR 06/05 A3017 RMK AO2
  • 201535Z AUTO 35003KT 10SM CLR 05/04 A3016 RMK AO2
  • 201515Z AUTO 31003KT 10SM CLR 05/03 A3015 RMK AO2
  • 201455Z AUTO 00000KT 10SM CLR 05/03 A3014 RMK AO2
  • 201435Z AUTO 36004KT 10SM CLR 05/03 A3014 RMK AO2

TAF KMCC
Valide du 20 à 12h jusqu'au 21 à 12h UTC


201126Z 2012/2112 VRB04KT P6SM SCT200



MET'MAP, la Météo Aéronautique d'un coup d'oeil ! - Copyright ORBIFLY Décembre 2007 - Disclaimer

ORBIFLY MET'MAP TEAM :

Programmation & Développement : Alexandra Zaïnal
Sur une idée originale de : Baudouin d'Aumeries
Assistance à la programmation : Marc-Olivier Méhu
Soutien technique & logistique : Manuel Goepfert

Contact : metmap@orbifly.com




SOURCES & CREDITS :

   NOAA       Earth
Advisory